Terminal Aerodrome Forecast
Issued by NWS

Home | Current Version | Previous Version | Text Only | Print | Product List | Glossary On
Versions: 1 2 3 4 5 6 7 8 9 10 11 12 13 14 15 16 17 18 19 20 21 22 23 24 25 26 27 28 29 30 31 32 33 34 35 36 37 38 39 40 41 42 43 44 45 46
000
FTUS44 KHGX 240802 AAB
TAFSGR
TAF AMD
KSGR 240802Z 2408/2506 16011KT P6SM SKC
     FM241500 18018G23KT P6SM BKN025
     FM241900 18018G28KT P6SM -TSRA VCTS BKN030CB
      TEMPO 2422/2424 VRB30KT 3SM TSRA
     FM250300 19012KT P6SM OVC015=

USA.gov is the U.S. government's official web portal to all federal, state and local government web resources and services.